Time;durP1;ratioP1;P1;durP2;ratioP2;P2;SDS_P1;SDS_P2;PMS_P1;PMS_P2;Temp;Humidity;BMP_temperature;BMP_pressure;BME280_temperature;BME280_humidity;BME280_pressure;Samples;Min_cycle;Max_cycle;Signal;HPM_P1;HPM_P2
2021/09/10 00:00:16;;;;;;;3.88;2.30;;;22.90;50.60;;;;;;4165814;28;20056;-49
2021/09/10 00:02:18;;;;;;;4.40;2.13;;;22.90;50.60;;;;;;4166009;28;20097;-50
2021/09/10 00:04:20;;;;;;;4.13;2.00;;;22.90;50.60;;;;;;4165838;28;20073;-51
2021/09/10 00:06:22;;;;;;;3.65;2.20;;;22.90;50.50;;;;;;4165796;28;20081;-51
2021/09/10 00:08:24;;;;;;;3.90;1.92;;;22.90;50.60;;;;;;4165759;28;20125;-50
2021/09/10 00:10:28;;;;;;;2.17;1.90;;;22.90;50.50;;;;;;4165798;28;20046;-49
2021/09/10 00:12:30;;;;;;;4.00;1.85;;;22.90;50.60;;;;;;4165948;28;20046;-52
2021/09/10 00:14:32;;;;;;;2.67;1.50;;;22.90;50.60;;;;;;4165727;28;20096;-51
2021/09/10 00:16:34;;;;;;;3.83;2.13;;;22.90;50.60;;;;;;4165767;28;20050;-50
2021/09/10 00:18:36;;;;;;;3.60;1.70;;;22.90;50.60;;;;;;4165790;28;20053;-48
2021/09/10 00:20:38;;;;;;;3.47;1.70;;;22.90;50.50;;;;;;4165812;28;20073;-50
2021/09/10 00:22:40;;;;;;;4.70;1.65;;;22.90;50.60;;;;;;4165530;28;20073;-51
2021/09/10 00:24:42;;;;;;;4.75;2.55;;;22.90;50.50;;;;;;4165523;28;20050;-52
2021/09/10 00:26:44;;;;;;;3.55;1.80;;;22.90;50.50;;;;;;4165643;28;20048;-48
2021/09/10 00:28:46;;;;;;;3.60;2.15;;;22.90;50.50;;;;;;4165396;28;20105;-52
2021/09/10 00:30:48;;;;;;;2.78;1.73;;;22.90;50.50;;;;;;4165389;28;20454;-52
2021/09/10 00:32:50;;;;;;;3.55;2.05;;;22.90;50.50;;;;;;4165266;28;20097;-48
2021/09/10 00:34:52;;;;;;;2.55;1.95;;;22.90;50.70;;;;;;4164939;28;20042;-48
2021/09/10 00:36:54;;;;;;;5.43;2.00;;;22.80;50.60;;;;;;4166279;28;20038;-54
2021/09/10 00:38:56;;;;;;;3.00;1.83;;;22.80;50.70;;;;;;4168173;28;20102;-48
2021/09/10 00:40:59;;;;;;;3.28;1.92;;;22.90;50.70;;;;;;4167976;28;20070;-49
2021/09/10 00:43:01;;;;;;;4.07;2.63;;;22.90;50.70;;;;;;4167967;28;20049;-49
2021/09/10 00:45:04;;;;;;;4.32;2.38;;;22.80;50.70;;;;;;4167977;28;20094;-49
2021/09/10 00:47:07;;;;;;;4.57;2.42;;;22.90;50.80;;;;;;4167916;28;20101;-49
2021/09/10 00:49:09;;;;;;;3.60;1.92;;;22.80;50.70;;;;;;4167926;28;20073;-47
2021/09/10 00:51:11;;;;;;;4.65;2.75;;;22.80;50.70;;;;;;4167723;28;20084;-47
2021/09/10 00:53:14;;;;;;;4.72;2.17;;;22.90;50.70;;;;;;4167755;28;20081;-51
2021/09/10 00:55:25;;;;;;;3.50;1.90;;;22.80;50.70;;;;;;4167811;28;20072;-48
2021/09/10 00:57:27;;;;;;;3.17;1.85;;;22.90;50.70;;;;;;4167768;28;20065;-50
2021/09/10 00:59:29;;;;;;;3.00;1.80;;;22.80;50.70;;;;;;4167549;28;20065;-48
2021/09/10 01:01:32;;;;;;;2.65;1.80;;;22.80;50.60;;;;;;4167808;28;20042;-48
2021/09/10 01:03:35;;;;;;;4.43;2.17;;;22.90;50.70;;;;;;4167701;28;20057;-48
2021/09/10 01:05:41;;;;;;;3.70;2.17;;;22.80;50.70;;;;;;4167664;28;20042;-51
2021/09/10 01:07:45;;;;;;;2.40;1.73;;;22.80;50.70;;;;;;4167660;28;20042;-52
2021/09/10 01:09:47;;;;;;;3.22;1.67;;;22.80;50.60;;;;;;4167552;28;20049;-49
2021/09/10 01:11:53;;;;;;;1.73;1.60;;;22.80;50.70;;;;;;4167342;28;20068;-50
2021/09/10 01:13:55;;;;;;;2.90;2.00;;;22.80;50.60;;;;;;4167522;28;20061;-49
2021/09/10 01:15:58;;;;;;;3.08;2.05;;;22.80;50.70;;;;;;4167403;28;20069;-51
2021/09/10 01:18:00;;;;;;;2.90;1.98;;;22.80;50.60;;;;;;4167326;28;20041;-46
2021/09/10 01:20:05;;;;;;;4.13;2.13;;;22.80;50.70;;;;;;4167439;28;20093;-51
2021/09/10 01:22:07;;;;;;;2.42;1.90;;;22.80;50.60;;;;;;4167341;28;20037;-50
2021/09/10 01:24:10;;;;;;;2.53;1.95;;;22.80;50.60;;;;;;4167917;28;20050;-52
2021/09/10 01:26:12;;;;;;;3.33;2.08;;;22.80;50.70;;;;;;4168018;28;20105;-51
2021/09/10 01:28:15;;;;;;;2.58;1.90;;;22.80;50.60;;;;;;4167928;28;20118;-47
2021/09/10 01:30:19;;;;;;;2.85;1.85;;;22.80;50.60;;;;;;4167180;28;20093;-52
2021/09/10 01:32:21;;;;;;;4.50;2.22;;;22.80;50.60;;;;;;4167923;28;20053;-48
2021/09/10 01:34:23;;;;;;;4.15;2.20;;;22.80;50.60;;;;;;4167880;28;20097;-52
2021/09/10 01:36:25;;;;;;;4.00;1.90;;;22.80;50.70;;;;;;4167851;28;20069;-51
2021/09/10 01:38:27;;;;;;;2.28;1.70;;;22.80;50.60;;;;;;4167791;28;20089;-50
2021/09/10 01:40:30;;;;;;;4.10;1.85;;;22.80;50.70;;;;;;4167820;28;20094;-53
2021/09/10 01:42:32;;;;;;;3.03;1.75;;;22.80;50.60;;;;;;4167696;28;20141;-49
2021/09/10 01:44:34;;;;;;;3.03;1.90;;;22.80;50.60;;;;;;4167627;28;20065;-50
2021/09/10 01:46:37;;;;;;;2.30;1.77;;;22.80;50.60;;;;;;4167507;28;20046;-51
2021/09/10 01:48:39;;;;;;;4.38;1.83;;;22.80;50.70;;;;;;4166919;28;20080;-53
2021/09/10 01:50:41;;;;;;;3.78;2.10;;;22.80;50.70;;;;;;4167402;28;20042;-50
2021/09/10 01:52:43;;;;;;;5.03;2.05;;;22.80;50.70;;;;;;4166686;28;20038;-51
2021/09/10 01:54:47;;;;;;;4.45;1.95;;;22.80;50.60;;;;;;4167514;28;20046;-49
2021/09/10 01:56:49;;;;;;;2.78;2.00;;;22.80;50.60;;;;;;4167515;28;20406;-52
2021/09/10 01:58:51;;;;;;;4.05;2.22;;;22.80;50.60;;;;;;4167415;28;20117;-52
2021/09/10 02:00:53;;;;;;;4.85;2.40;;;22.80;50.60;;;;;;4167272;28;20101;-53
2021/09/10 02:02:55;;;;;;;2.50;1.80;;;22.80;50.70;;;;;;4167074;28;20073;-52
2021/09/10 02:04:58;;;;;;;4.03;1.80;;;22.80;50.60;;;;;;4167045;28;20455;-52
2021/09/10 02:07:00;;;;;;;5.57;2.03;;;22.80;50.60;;;;;;4166871;28;20048;-53
2021/09/10 02:09:02;;;;;;;2.80;1.77;;;22.70;50.70;;;;;;4166132;28;20069;-48
2021/09/10 02:11:04;;;;;;;2.97;2.05;;;22.80;50.70;;;;;;4167127;28;20080;-48
2021/09/10 02:13:06;;;;;;;2.83;1.98;;;22.80;50.60;;;;;;4167074;28;20050;-48
2021/09/10 02:15:08;;;;;;;4.35;1.85;;;22.80;50.70;;;;;;4166792;28;20065;-51
2021/09/10 02:17:10;;;;;;;1.95;1.75;;;22.80;50.70;;;;;;4167046;28;20076;-48
2021/09/10 02:19:12;;;;;;;3.85;2.00;;;22.80;50.60;;;;;;4166833;28;20038;-50
2021/09/10 02:21:14;;;;;;;2.63;2.10;;;22.80;50.70;;;;;;4167106;28;20101;-52
2021/09/10 02:23:16;;;;;;;2.88;2.03;;;22.80;50.70;;;;;;4166919;28;20038;-53
2021/09/10 02:25:18;;;;;;;2.00;1.70;;;22.80;50.70;;;;;;4167030;28;20057;-52
2021/09/10 02:27:20;;;;;;;3.42;2.22;;;22.80;50.70;;;;;;4166874;28;20045;-52
2021/09/10 02:29:22;;;;;;;2.90;2.03;;;22.80;50.60;;;;;;4166940;28;20045;-51
2021/09/10 02:31:24;;;;;;;4.18;2.30;;;22.80;50.60;;;;;;4166965;28;20049;-51
2021/09/10 02:33:29;;;;;;;3.95;2.28;;;22.80;50.60;;;;;;4166903;28;20072;-52
2021/09/10 02:35:32;;;;;;;5.00;2.05;;;22.80;50.60;;;;;;4166715;28;20052;-51
2021/09/10 02:37:34;;;;;;;4.13;2.17;;;22.80;50.60;;;;;;4166785;28;20120;-52
2021/09/10 02:39:36;;;;;;;5.30;2.47;;;22.80;50.70;;;;;;4166745;28;20042;-47
2021/09/10 02:41:39;;;;;;;3.00;1.80;;;22.70;50.70;;;;;;4166815;28;20040;-51
2021/09/10 02:43:41;;;;;;;4.13;2.00;;;22.80;50.60;;;;;;4166599;28;20097;-53
2021/09/10 02:45:43;;;;;;;3.30;1.80;;;22.80;50.60;;;;;;4166527;28;20042;-52
2021/09/10 02:47:45;;;;;;;3.58;2.03;;;22.80;50.60;;;;;;4166499;28;20053;-52
2021/09/10 02:49:48;;;;;;;3.70;2.10;;;22.80;50.60;;;;;;4166414;28;20053;-48
2021/09/10 02:51:50;;;;;;;5.13;2.15;;;22.80;50.60;;;;;;4166313;28;20081;-52
2021/09/10 02:53:52;;;;;;;2.90;2.25;;;22.80;50.60;;;;;;4166516;28;20042;-52
2021/09/10 02:55:56;;;;;;;4.35;2.50;;;22.80;50.70;;;;;;4166275;28;20097;-51
2021/09/10 02:57:58;;;;;;;3.15;1.92;;;22.80;50.60;;;;;;4166404;28;20148;-50
2021/09/10 03:00:00;;;;;;;2.35;1.63;;;22.80;50.70;;;;;;4166204;28;20038;-54
2021/09/10 03:02:02;;;;;;;3.15;2.05;;;22.80;50.60;;;;;;4166392;28;20046;-53
2021/09/10 03:04:04;;;;;;;2.42;1.80;;;22.80;50.60;;;;;;4166506;28;20049;-55
2021/09/10 03:06:07;;;;;;;2.30;1.88;;;22.80;50.60;;;;;;4165535;28;20042;-53
2021/09/10 03:08:09;;;;;;;3.45;1.88;;;22.80;50.70;;;;;;4166331;28;20050;-50
2021/09/10 03:10:11;;;;;;;2.25;1.73;;;22.80;50.80;;;;;;4166215;28;20066;-50
2021/09/10 03:12:14;;;;;;;2.67;1.88;;;22.80;50.70;;;;;;4166452;28;20089;-51
2021/09/10 03:14:15;;;;;;;3.47;2.15;;;22.80;50.70;;;;;;4166273;28;20094;-55
2021/09/10 03:16:18;;;;;;;4.78;2.05;;;22.80;50.70;;;;;;4166276;28;20042;-54
2021/09/10 03:18:20;;;;;;;2.95;1.63;;;22.80;50.70;;;;;;4166197;28;20046;-53
2021/09/10 03:20:22;;;;;;;5.13;1.98;;;22.80;50.70;;;;;;4166350;28;20068;-53
2021/09/10 03:22:24;;;;;;;3.55;2.40;;;22.80;50.70;;;;;;4166278;28;20055;-54
2021/09/10 03:24:26;;;;;;;4.32;2.08;;;22.80;50.60;;;;;;4148729;28;20049;-55
2021/09/10 03:26:28;;;;;;;2.72;1.80;;;22.80;50.60;;;;;;4166213;28;20093;-54
2021/09/10 03:28:30;;;;;;;2.88;2.03;;;22.80;50.60;;;;;;4166267;28;20066;-53
2021/09/10 03:30:32;;;;;;;2.15;1.73;;;22.80;50.50;;;;;;4166236;28;20066;-53
2021/09/10 03:32:34;;;;;;;3.28;2.10;;;22.80;50.60;;;;;;4165156;28;20094;-53
2021/09/10 03:34:36;;;;;;;3.15;2.03;;;22.80;50.60;;;;;;4165944;28;20052;-53
2021/09/10 03:36:38;;;;;;;6.55;2.40;;;22.80;50.60;;;;;;4166162;28;20057;-53
2021/09/10 03:38:40;;;;;;;2.80;2.10;;;22.70;50.50;;;;;;4166141;28;20070;-53
2021/09/10 03:40:42;;;;;;;2.42;2.13;;;22.80;50.60;;;;;;4165909;28;20065;-53
2021/09/10 03:42:44;;;;;;;3.28;1.60;;;22.80;50.60;;;;;;4165922;28;20042;-52
2021/09/10 03:44:46;;;;;;;2.85;2.03;;;22.80;50.60;;;;;;4165974;28;20046;-54
2021/09/10 03:46:48;;;;;;;3.13;2.00;;;22.80;50.60;;;;;;4166025;28;20050;-52
2021/09/10 03:48:51;;;;;;;3.63;2.10;;;22.80;50.60;;;;;;4166028;28;20052;-53
2021/09/10 03:50:52;;;;;;;4.25;2.50;;;22.80;50.50;;;;;;4165862;28;20050;-50
2021/09/10 03:52:55;;;;;;;4.18;2.33;;;22.80;50.60;;;;;;4165911;28;20045;-53
2021/09/10 03:54:56;;;;;;;3.22;2.00;;;22.80;50.60;;;;;;4165883;28;20121;-53
2021/09/10 03:56:59;;;;;;;3.42;2.00;;;22.80;50.50;;;;;;4165893;28;20046;-54
2021/09/10 03:59:01;;;;;;;2.97;2.10;;;22.80;50.40;;;;;;4165858;28;20065;-55
2021/09/10 04:01:03;;;;;;;5.85;2.35;;;22.80;50.50;;;;;;4165554;28;20033;-51
2021/09/10 04:03:05;;;;;;;3.60;2.35;;;22.80;51.90;;;;;;4165874;28;20034;-49
2021/09/10 04:05:08;;;;;;;4.10;2.30;;;22.70;52.50;;;;;;4165911;28;20042;-48
2021/09/10 04:07:09;;;;;;;24.25;16.60;;;22.70;53.00;;;;;;4165412;28;20046;-55
2021/09/10 04:09:12;;;;;;;79.47;58.15;;;22.60;51.60;;;;;;4165390;28;20120;-54
2021/09/10 04:11:14;;;;;;;41.92;29.58;;;22.60;51.10;;;;;;4165038;28;20073;-50
2021/09/10 04:13:16;;;;;;;39.88;27.08;;;22.60;50.50;;;;;;4167279;28;20077;-51
2021/09/10 04:15:18;;;;;;;35.63;21.95;;;22.60;50.00;;;;;;4168253;28;20041;-54
2021/09/10 04:17:20;;;;;;;20.52;15.75;;;22.60;50.10;;;;;;4168085;28;20042;-49
2021/09/10 04:19:22;;;;;;;21.20;13.25;;;22.60;50.20;;;;;;4168113;28;20098;-52
2021/09/10 04:21:24;;;;;;;13.57;8.77;;;22.60;50.10;;;;;;4167633;28;20066;-53
2021/09/10 04:23:26;;;;;;;12.77;8.75;;;22.60;50.10;;;;;;4168111;28;20097;-49
2021/09/10 04:25:29;;;;;;;18.13;10.63;;;22.70;49.70;;;;;;4167620;28;20057;-50
2021/09/10 04:27:31;;;;;;;26.13;15.90;;;22.60;49.50;;;;;;4167922;28;20042;-50
2021/09/10 04:29:33;;;;;;;24.77;14.43;;;22.60;49.00;;;;;;4168364;28;20105;-50
2021/09/10 04:31:35;;;;;;;21.00;12.57;;;22.60;51.00;;;;;;4168143;28;20110;-51
2021/09/10 04:33:38;;;;;;;25.05;12.02;;;22.50;51.30;;;;;;4168151;28;20050;-50
2021/09/10 04:35:39;;;;;;;23.48;11.57;;;22.50;51.00;;;;;;4168012;28;20048;-52
2021/09/10 04:37:42;;;;;;;22.58;11.13;;;22.50;50.50;;;;;;4167850;28;20057;-51
2021/09/10 04:39:44;;;;;;;22.40;10.80;;;22.50;50.80;;;;;;4167898;28;20034;-49
2021/09/10 04:41:46;;;;;;;16.90;8.98;;;22.50;50.50;;;;;;4167150;28;20046;-49
2021/09/10 04:43:48;;;;;;;31.80;10.15;;;22.50;50.40;;;;;;4167776;28;20042;-53
2021/09/10 04:45:50;;;;;;;17.52;8.43;;;22.50;50.20;;;;;;4167944;28;20091;-59
2021/09/10 04:47:52;;;;;;;26.20;10.32;;;22.50;50.10;;;;;;4166608;28;20046;-55
2021/09/10 04:49:54;;;;;;;29.58;9.90;;;22.50;50.00;;;;;;4166503;28;20110;-48
2021/09/10 04:51:56;;;;;;;26.33;9.80;;;22.50;49.80;;;;;;4166390;28;20119;-50
2021/09/10 04:54:00;;;;;;;20.90;9.43;;;22.40;49.30;;;;;;4166306;28;20072;-50
2021/09/10 04:56:03;;;;;;;18.88;8.32;;;22.40;49.30;;;;;;4166446;28;20038;-49
2021/09/10 04:58:05;;;;;;;17.58;8.23;;;22.40;48.90;;;;;;4167835;28;20068;-49
2021/09/10 05:00:07;;;;;;;17.45;7.97;;;22.40;49.20;;;;;;4167598;28;20105;-49
2021/09/10 05:02:09;;;;;;;125.68;27.05;;;22.40;49.00;;;;;;4167205;28;20106;-49
2021/09/10 05:04:12;;;;;;;60.65;15.18;;;22.40;48.90;;;;;;4167246;28;20042;-47
2021/09/10 05:06:14;;;;;;;48.20;11.68;;;22.40;48.60;;;;;;4167349;28;20056;-47
2021/09/10 05:08:16;;;;;;;34.97;11.02;;;22.30;48.60;;;;;;4167504;28;20052;-48
2021/09/10 05:10:18;;;;;;;83.22;41.03;;;22.30;48.70;;;;;;4168418;28;20101;-49
2021/09/10 05:12:20;;;;;;;99.45;66.10;;;22.30;47.80;;;;;;4166792;28;20105;-55
2021/09/10 05:14:22;;;;;;;88.97;59.25;;;22.20;48.60;;;;;;4166084;28;20052;-54
2021/09/10 05:16:24;;;;;;;54.80;33.10;;;22.20;48.70;;;;;;4166002;28;20053;-50
2021/09/10 05:18:26;;;;;;;88.82;47.40;;;22.30;49.20;;;;;;4166372;28;20093;-53
2021/09/10 05:20:28;;;;;;;93.35;59.97;;;22.30;47.90;;;;;;4166758;28;20065;-50
2021/09/10 05:22:30;;;;;;;67.93;43.88;;;22.20;47.90;;;;;;4166591;28;20041;-53
2021/09/10 05:24:32;;;;;;;56.75;36.55;;;22.20;47.60;;;;;;4165659;28;20105;-52
2021/09/10 05:26:34;;;;;;;59.08;32.63;;;22.20;47.40;;;;;;4166674;28;20052;-52
2021/09/10 05:28:36;;;;;;;45.88;28.42;;;22.10;47.40;;;;;;4166401;28;20053;-54
2021/09/10 05:30:38;;;;;;;46.40;24.63;;;22.00;47.10;;;;;;4166597;28;20056;-47
2021/09/10 05:32:40;;;;;;;59.90;25.02;;;22.00;47.10;;;;;;4166743;28;20109;-47
2021/09/10 05:34:42;;;;;;;47.70;23.75;;;22.00;46.70;;;;;;4166379;28;20136;-48
2021/09/10 05:36:44;;;;;;;47.22;24.20;;;22.00;47.50;;;;;;4165969;28;20045;-47
2021/09/10 05:38:46;;;;;;;41.00;21.38;;;22.00;47.90;;;;;;4165400;28;20182;-47
2021/09/10 05:40:48;;;;;;;40.22;20.23;;;22.00;47.90;;;;;;4166732;28;20038;-46
2021/09/10 05:42:50;;;;;;;42.00;19.30;;;22.00;48.00;;;;;;4166451;28;20056;-48
2021/09/10 05:44:52;;;;;;;23.77;15.75;;;22.00;47.60;;;;;;4166767;28;20494;-46
2021/09/10 05:46:54;;;;;;;29.00;15.60;;;22.00;47.80;;;;;;4166180;28;20046;-48
2021/09/10 05:48:56;;;;;;;29.30;15.95;;;22.00;47.60;;;;;;4166022;28;20045;-48
2021/09/10 05:50:58;;;;;;;29.45;15.48;;;22.00;47.60;;;;;;4165416;28;20042;-47
2021/09/10 05:53:00;;;;;;;30.95;14.75;;;22.00;47.70;;;;;;4164756;28;20054;-46
2021/09/10 05:55:03;;;;;;;24.50;14.50;;;21.90;47.10;;;;;;4165913;28;20049;-46
2021/09/10 05:57:05;;;;;;;25.08;14.27;;;21.90;47.40;;;;;;4166123;28;20045;-48
2021/09/10 05:59:07;;;;;;;24.25;14.82;;;21.90;47.60;;;;;;4166229;28;20038;-46
2021/09/10 06:01:09;;;;;;;24.38;12.95;;;21.90;47.70;;;;;;4166344;28;20073;-49
2021/09/10 06:03:12;;;;;;;22.27;12.52;;;21.90;47.80;;;;;;4166197;28;20073;-48
2021/09/10 06:05:14;;;;;;;24.65;12.77;;;21.90;48.00;;;;;;4166248;28;20145;-49
2021/09/10 06:07:16;;;;;;;22.83;12.30;;;21.90;48.00;;;;;;4165987;28;20113;-46
2021/09/10 06:09:18;;;;;;;25.52;11.57;;;21.90;47.80;;;;;;4166118;28;20045;-49
2021/09/10 06:11:20;;;;;;;20.92;11.95;;;21.90;48.00;;;;;;4166159;28;20045;-48
2021/09/10 06:13:22;;;;;;;18.70;11.85;;;21.90;47.70;;;;;;4166259;28;20102;-47
2021/09/10 06:15:24;;;;;;;29.02;12.60;;;21.90;48.20;;;;;;4165265;28;20065;-46
2021/09/10 06:17:26;;;;;;;17.63;10.95;;;21.90;47.30;;;;;;4165854;28;20042;-47
2021/09/10 06:19:28;;;;;;;31.50;13.02;;;21.80;47.70;;;;;;4166116;28;20041;-47
2021/09/10 06:21:30;;;;;;;17.75;10.32;;;21.80;48.00;;;;;;4166057;28;20042;-49
2021/09/10 06:23:32;;;;;;;23.33;11.65;;;21.80;47.80;;;;;;4165868;28;20078;-48
2021/09/10 06:25:35;;;;;;;19.42;9.43;;;21.70;47.70;;;;;;4165172;28;20050;-47
2021/09/10 06:27:38;;;;;;;18.88;11.18;;;21.70;47.50;;;;;;4165032;28;20049;-47
2021/09/10 06:29:40;;;;;;;19.42;10.15;;;21.80;48.10;;;;;;4165926;28;20073;-47
2021/09/10 06:31:44;;;;;;;21.58;9.35;;;21.70;47.80;;;;;;4164862;28;20045;-50
2021/09/10 06:33:46;;;;;;;28.60;11.38;;;21.60;47.50;;;;;;4166153;28;20065;-48
2021/09/10 06:35:48;;;;;;;17.75;8.88;;;21.70;47.50;;;;;;4166074;28;20062;-46
2021/09/10 06:37:50;;;;;;;32.28;10.98;;;21.70;47.20;;;;;;4166281;28;20068;-51
2021/09/10 06:39:52;;;;;;;20.83;9.63;;;21.60;47.70;;;;;;4165519;28;20121;-51
2021/09/10 06:41:56;;;;;;;18.83;8.27;;;21.60;48.00;;;;;;4166380;28;20097;-48
2021/09/10 06:43:58;;;;;;;15.23;8.35;;;21.60;47.90;;;;;;4166366;28;20044;-48
2021/09/10 06:46:00;;;;;;;24.58;8.07;;;21.60;47.60;;;;;;4166363;28;20045;-49
2021/09/10 06:48:03;;;;;;;17.92;8.18;;;21.60;47.90;;;;;;4166774;28;20038;-49
2021/09/10 06:50:09;;;;;;;16.48;7.55;;;21.60;47.60;;;;;;4165868;28;20053;-48
2021/09/10 06:52:11;;;;;;;23.15;8.23;;;21.50;48.00;;;;;;4165355;28;20085;-47
2021/09/10 06:54:13;;;;;;;14.38;8.10;;;21.50;48.00;;;;;;4165249;28;20052;-48
2021/09/10 06:56:15;;;;;;;18.50;7.95;;;21.60;48.20;;;;;;4164289;28;20054;-52
2021/09/10 06:58:17;;;;;;;16.48;6.80;;;21.70;48.30;;;;;;4166520;28;20041;-47
2021/09/10 07:00:19;;;;;;;15.27;7.05;;;21.70;48.00;;;;;;4166420;28;20068;-46
2021/09/10 07:02:24;;;;;;;17.40;6.82;;;21.70;47.20;;;;;;4165842;28;20060;-50
2021/09/10 07:04:26;;;;;;;16.17;5.97;;;21.50;47.50;;;;;;4165378;28;20038;-57
2021/09/10 07:06:30;;;;;;;11.98;6.75;;;21.60;48.40;;;;;;4165531;28;20054;-57
2021/09/10 07:08:32;;;;;;;23.52;11.27;;;21.70;47.10;;;;;;4165115;28;20050;-57
2021/09/10 07:10:34;;;;;;;22.67;9.93;;;21.70;47.10;;;;;;4164941;28;20052;-59
2021/09/10 07:12:36;;;;;;;16.17;7.60;;;21.60;47.00;;;;;;4165812;28;20117;-55
2021/09/10 07:14:38;;;;;;;31.02;8.23;;;21.70;47.80;;;;;;4166427;28;20046;-50
2021/09/10 07:16:40;;;;;;;21.48;7.07;;;21.90;46.30;;;;;;4166440;28;20073;-49
2021/09/10 07:18:42;;;;;;;16.38;8.45;;;21.90;46.40;;;;;;4166484;28;20046;-50
2021/09/10 07:20:44;;;;;;;28.58;6.97;;;21.90;46.50;;;;;;4166259;28;20060;-47
2021/09/10 07:22:46;;;;;;;21.95;6.90;;;21.90;46.70;;;;;;4164475;28;20109;-58
2021/09/10 07:24:48;;;;;;;20.42;6.78;;;21.90;47.20;;;;;;4165412;28;20061;-57
2021/09/10 07:26:52;;;;;;;14.43;6.13;;;21.90;49.80;;;;;;4165315;28;20054;-58
2021/09/10 07:28:54;;;;;;;16.50;6.50;;;22.00;50.80;;;;;;4165508;28;20053;-55
2021/09/10 07:31:15;;;;;;;10.82;6.15;;;22.00;54.50;;;;;;4165597;28;20068;-55
2021/09/10 07:33:18;;;;;;;15.93;6.53;;;22.00;49.90;;;;;;4165374;28;20050;-53
2021/09/10 07:35:20;;;;;;;14.43;7.43;;;22.00;49.00;;;;;;4164859;28;20056;-54
2021/09/10 07:37:27;;;;;;;24.63;6.90;;;22.00;48.30;;;;;;4165583;28;20109;-61
2021/09/10 07:39:28;;;;;;;25.13;6.95;;;22.00;47.10;;;;;;4165943;28;20080;-49
2021/09/10 07:41:30;;;;;;;40.88;18.00;;;22.10;47.00;;;;;;4165731;28;20073;-58
2021/09/10 07:43:33;;;;;;;35.92;15.68;;;22.10;46.80;;;;;;4164509;28;20072;-57
2021/09/10 07:45:36;;;;;;;20.65;12.70;;;22.00;46.90;;;;;;4164024;28;20050;-58
2021/09/10 07:47:57;;;;;;;19.27;8.30;;;22.00;47.20;;;;;;4167668;28;20053;-50
2021/09/10 07:49:59;;;;;;;21.25;9.93;;;22.00;48.40;;;;;;4168695;28;20046;-55
2021/09/10 07:52:01;;;;;;;19.13;8.23;;;22.00;47.90;;;;;;4168364;28;20058;-51
2021/09/10 07:54:05;;;;;;;15.63;8.90;;;22.00;48.10;;;;;;4168633;28;20042;-55
2021/09/10 07:56:10;;;;;;;19.05;9.32;;;22.10;47.90;;;;;;4168557;28;20049;-57
2021/09/10 07:58:12;;;;;;;18.70;9.30;;;22.00;48.10;;;;;;4168425;28;20046;-53
2021/09/10 08:00:17;;;;;;;12.98;8.65;;;22.00;48.20;;;;;;4168460;28;20046;-53
2021/09/10 08:02:39;;;;;;;16.88;8.65;;;22.10;47.50;;;;;;4168514;28;20042;-51
2021/09/10 08:04:41;;;;;;;13.88;8.82;;;22.00;47.90;;;;;;4167610;28;20053;-58
2021/09/10 08:06:43;;;;;;;16.70;8.63;;;22.00;46.90;;;;;;4168614;28;20081;-53
2021/09/10 08:08:45;;;;;;;12.02;6.75;;;22.00;47.60;;;;;;4168834;28;20136;-50
2021/09/10 08:10:47;;;;;;;12.55;6.57;;;22.00;46.00;;;;;;4168910;28;20117;-45
2021/09/10 08:12:49;;;;;;;20.33;8.25;;;22.10;46.70;;;;;;4116305;28;55396;-46
2021/09/10 08:14:51;;;;;;;12.18;8.18;;;22.10;46.30;;;;;;4113848;28;20076;-46
2021/09/10 08:16:53;;;;;;;12.23;6.68;;;22.00;46.40;;;;;;4173053;28;20052;-48
2021/09/10 08:18:55;;;;;;;11.02;7.43;;;22.00;47.40;;;;;;4168738;28;20042;-46
2021/09/10 08:21:15;;;;;;;13.00;6.70;;;22.00;47.80;;;;;;4167711;28;20050;-46
2021/09/10 08:23:17;;;;;;;17.60;7.03;;;22.00;46.80;;;;;;4168624;28;20061;-50
2021/09/10 08:25:20;;;;;;;10.68;6.78;;;22.00;46.70;;;;;;4168644;28;20038;-48
2021/09/10 08:27:22;;;;;;;14.13;6.75;;;22.00;47.40;;;;;;4168690;28;20056;-46
2021/09/10 08:29:26;;;;;;;10.80;7.00;;;22.00;47.90;;;;;;4168371;28;20052;-45
2021/09/10 08:31:28;;;;;;;10.75;6.38;;;21.90;46.00;;;;;;4168329;28;20042;-45
2021/09/10 08:33:30;;;;;;;11.85;6.70;;;22.00;45.90;;;;;;4168174;28;20049;-47
2021/09/10 08:35:32;;;;;;;10.77;4.82;;;21.90;46.40;;;;;;4167832;28;20077;-52
2021/09/10 08:37:34;;;;;;;12.52;6.60;;;21.90;45.40;;;;;;4168325;28;20073;-48
2021/09/10 08:39:36;;;;;;;11.00;5.00;;;21.90;46.10;;;;;;4168191;28;20065;-52
2021/09/10 08:41:39;;;;;;;11.07;4.20;;;22.00;45.10;;;;;;4168373;28;20068;-48
2021/09/10 08:43:48;;;;;;;9.20;5.50;;;22.00;44.70;;;;;;4168026;28;20045;-51
2021/09/10 08:45:55;;;;;;;11.85;6.22;;;22.00;46.20;;;;;;4184169;28;20112;-53
2021/09/10 08:47:57;;;;;;;9.32;5.53;;;22.00;46.10;;;;;;4168459;28;20042;-50
2021/09/10 08:49:59;;;;;;;14.77;10.73;;;22.00;45.30;;;;;;4168296;28;20042;-53
2021/09/10 08:52:01;;;;;;;40.95;26.75;;;22.10;45.70;;;;;;4167924;28;20069;-53
2021/09/10 08:54:03;;;;;;;44.88;26.88;;;22.10;43.80;;;;;;4168146;28;20065;-53
2021/09/10 08:56:06;;;;;;;26.67;20.85;;;22.10;42.50;;;;;;4168132;28;20061;-46
2021/09/10 08:58:07;;;;;;;23.77;16.90;;;22.00;41.90;;;;;;4167406;28;20057;-44
2021/09/10 09:00:10;;;;;;;20.38;14.00;;;22.10;41.50;;;;;;4166755;28;20052;-44
2021/09/10 09:02:14;;;;;;;21.67;13.73;;;22.00;41.10;;;;;;4167741;28;20102;-55
2021/09/10 09:04:18;;;;;;;18.98;11.40;;;22.10;41.90;;;;;;4167630;28;20052;-47
2021/09/10 09:06:31;;;;;;;20.52;11.35;;;22.20;43.70;;;;;;4166737;28;20054;-45
2021/09/10 09:08:35;;;;;;;20.83;11.52;;;22.20;44.30;;;;;;4166976;28;20091;-45
2021/09/10 09:10:57;;;;;;;14.75;10.73;;;22.30;44.70;;;;;;4167256;28;20073;-45
2021/09/10 09:13:12;;;;;;;34.88;11.80;;;22.30;44.00;;;;;;4167400;28;20048;-48
2021/09/10 09:15:15;;;;;;;19.35;9.48;;;22.30;41.70;;;;;;4165590;28;20171;-45
2021/09/10 09:17:31;;;;;;;19.63;7.50;;;22.30;42.50;;;;;;4166961;28;20045;-44
2021/09/10 09:19:33;;;;;;;13.98;6.78;;;22.20;40.90;;;;;;4166821;28;20050;-45
2021/09/10 09:21:40;;;;;;;14.48;7.25;;;22.20;41.20;;;;;;4167508;28;20102;-44
2021/09/10 09:23:42;;;;;;;14.95;7.70;;;22.20;42.00;;;;;;4167315;28;20101;-46
2021/09/10 09:25:47;;;;;;;16.27;5.90;;;22.20;42.40;;;;;;4167478;28;20066;-43
2021/09/10 09:27:49;;;;;;;16.33;6.28;;;22.20;41.20;;;;;;4167656;28;20471;-43
2021/09/10 09:29:51;;;;;;;14.20;6.75;;;22.20;41.20;;;;;;4167342;28;20105;-43
2021/09/10 09:32:00;;;;;;;11.05;5.18;;;22.10;41.20;;;;;;4167389;28;20102;-45
2021/09/10 09:34:04;;;;;;;19.35;7.15;;;22.20;40.70;;;;;;4167184;28;20046;-47
2021/09/10 09:36:11;;;;;;;17.73;6.80;;;22.20;42.90;;;;;;4167281;28;20038;-50
2021/09/10 09:38:25;;;;;;;21.10;7.78;;;22.10;42.10;;;;;;4182560;28;20069;-48
2021/09/10 09:40:34;;;;;;;14.13;6.75;;;22.20;43.60;;;;;;4149967;28;20066;-47
2021/09/10 09:42:37;;;;;;;19.92;5.97;;;22.20;43.30;;;;;;4182476;28;20075;-49
2021/09/10 09:45:15;;;;;;;16.27;5.90;;;22.20;41.40;;;;;;4150010;28;20054;-60
2021/09/10 09:47:21;;;;;;;12.80;5.68;;;22.20;42.40;;;;;;4164371;28;20057;-57
2021/09/10 09:49:25;;;;;;;15.52;4.50;;;22.10;42.60;;;;;;4165883;28;20427;-59
2021/09/10 09:51:28;;;;;;;8.35;4.15;;;22.20;41.10;;;;;;4182001;28;20108;-60
2021/09/10 09:53:36;;;;;;;12.48;5.40;;;22.20;39.90;;;;;;4165869;28;20207;-60
2021/09/10 09:55:41;;;;;;;14.20;4.57;;;22.20;43.90;;;;;;4165710;28;20166;-46
2021/09/10 09:57:45;;;;;;;13.75;4.65;;;22.20;41.10;;;;;;4149409;28;20047;-50
2021/09/10 09:59:47;;;;;;;14.85;5.35;;;22.20;41.00;;;;;;4165529;28;20061;-50
2021/09/10 10:01:50;;;;;;;13.57;5.45;;;22.20;43.20;;;;;;4164589;28;20049;-59
2021/09/10 10:03:52;;;;;;;10.57;6.07;;;22.20;43.40;;;;;;4181127;28;20041;-60
2021/09/10 10:06:01;;;;;;;7.68;5.30;;;22.20;43.10;;;;;;4148467;28;20057;-59
2021/09/10 10:08:09;;;;;;;9.93;4.95;;;22.20;42.40;;;;;;4182257;28;20053;-59
2021/09/10 10:10:17;;;;;;;9.10;5.05;;;22.20;42.80;;;;;;4165829;28;20110;-59
2021/09/10 10:12:24;;;;;;;10.82;5.50;;;22.20;42.90;;;;;;4165083;28;20057;-58
2021/09/10 10:14:37;;;;;;;8.55;4.75;;;22.20;43.10;;;;;;4149735;28;20474;-53
2021/09/10 10:16:40;;;;;;;13.40;5.32;;;22.20;43.20;;;;;;4149899;28;20047;-55
2021/09/10 10:18:45;;;;;;;10.98;5.47;;;22.20;44.40;;;;;;4166212;28;20077;-54
2021/09/10 10:20:52;;;;;;;14.10;6.68;;;22.20;44.10;;;;;;4165430;28;20042;-57
2021/09/10 10:22:56;;;;;;;13.20;5.70;;;22.30;44.10;;;;;;4166195;28;20072;-48
2021/09/10 10:25:01;;;;;;;13.30;5.85;;;22.30;45.30;;;;;;4166780;28;20457;-49
2021/09/10 10:27:34;;;;;;;12.18;5.28;;;22.20;45.80;;;;;;4181706;28;20089;-55
2021/09/10 10:29:41;;;;;;;8.23;4.97;;;22.30;42.90;;;;;;4166191;28;20080;-59
2021/09/10 10:32:07;;;;;;;13.38;4.95;;;22.40;45.20;;;;;;4165919;28;20061;-50
2021/09/10 10:34:10;;;;;;;15.18;4.35;;;22.40;44.70;;;;;;4165241;28;20045;-48